createdAt,value
2022-11-19T00:00:48.148Z,101242.84
2022-11-19T00:05:50.967Z,101220.66
2022-11-19T00:10:53.560Z,101223.56
2022-11-19T00:15:56.007Z,101210.88
2022-11-19T00:21:13.909Z,101213.78
2022-11-19T00:26:16.699Z,101190.03
2022-11-19T00:31:19.588Z,101202.00
2022-11-19T00:36:22.250Z,101208.38
2022-11-19T00:41:24.845Z,101193.22
2022-11-19T00:46:30.232Z,101186.47
2022-11-19T00:51:33.218Z,101167.00
2022-11-19T00:56:35.942Z,101185.03
2022-11-19T01:01:38.712Z,101176.03
2022-11-19T01:06:41.604Z,101169.06
2022-11-19T01:11:44.660Z,101154.31
2022-11-19T01:16:47.597Z,101145.59
2022-11-19T01:21:50.335Z,101136.06
2022-11-19T01:26:53.000Z,101131.59
2022-11-19T01:31:55.907Z,101124.41
2022-11-19T01:36:58.629Z,101125.63
2022-11-19T01:42:01.323Z,101089.03
2022-11-19T01:47:04.066Z,101098.91
2022-11-19T01:52:06.927Z,101107.84
2022-11-19T01:57:10.864Z,101099.16
2022-11-19T02:02:13.866Z,101092.66
2022-11-19T02:07:17.595Z,101072.78
2022-11-19T02:12:45.735Z,101071.78
2022-11-19T02:18:36.703Z,101060.97
2022-11-19T02:24:07.170Z,101059.78
2022-11-19T02:29:21.404Z,101060.72
2022-11-19T02:34:30.144Z,101062.34
2022-11-19T02:39:35.497Z,101047.47
2022-11-19T02:45:02.610Z,101034.59
2022-11-19T02:50:10.319Z,101041.00
2022-11-19T02:55:19.352Z,101030.91
2022-11-19T03:00:40.722Z,101024.03
2022-11-19T03:05:46.831Z,101016.81
2022-11-19T03:10:58.957Z,101009.44
2022-11-19T03:16:22.588Z,100995.66
2022-11-19T03:21:35.083Z,100992.53
2022-11-19T03:26:46.274Z,100986.03
2022-11-19T03:31:51.802Z,100985.91
2022-11-19T03:36:57.018Z,100973.28
2022-11-19T03:41:59.809Z,100983.63
2022-11-19T03:47:23.929Z,100971.41
2022-11-19T03:52:26.742Z,100962.91
2022-11-19T03:57:29.522Z,100940.63
2022-11-19T04:02:32.347Z,100942.59
2022-11-19T04:07:35.080Z,100943.72
2022-11-19T04:12:37.757Z,100946.97
2022-11-19T04:17:40.479Z,100929.06
2022-11-19T04:22:43.107Z,100925.84
2022-11-19T04:27:46.949Z,100918.94
2022-11-19T04:32:49.844Z,100916.38
2022-11-19T04:37:52.509Z,100910.47
2022-11-19T04:42:55.344Z,100902.66
2022-11-19T04:47:58.006Z,100854.81
2022-11-19T04:53:01.183Z,100882.50
2022-11-19T04:58:04.075Z,100885.06
2022-11-19T05:03:07.135Z,100877.50
2022-11-19T05:08:09.883Z,100869.66
2022-11-19T05:13:12.931Z,100869.81
2022-11-19T05:18:15.527Z,100834.56
2022-11-19T05:23:18.292Z,100845.78
2022-11-19T05:28:32.699Z,100845.50
2022-11-19T05:33:40.938Z,100833.22
2022-11-19T05:38:43.836Z,100804.91
2022-11-19T05:43:46.504Z,100804.63
2022-11-19T05:48:49.179Z,100803.13
2022-11-19T05:53:52.017Z,100785.41
2022-11-19T05:58:54.792Z,100797.19
2022-11-19T06:03:57.667Z,100784.34
2022-11-19T06:09:00.273Z,100781.66
2022-11-19T06:14:03.396Z,100765.66
2022-11-19T06:19:06.360Z,100754.13
2022-11-19T06:24:09.078Z,100740.41
2022-11-19T06:29:14.044Z,100726.69
2022-11-19T06:34:16.736Z,100721.28
2022-11-19T06:39:20.154Z,100719.03
2022-11-19T06:44:22.830Z,100710.97
2022-11-19T06:49:26.032Z,100694.72
2022-11-19T06:54:28.839Z,100702.50
2022-11-19T06:59:31.863Z,100688.59
2022-11-19T07:04:34.590Z,100679.81
2022-11-19T07:09:37.432Z,100682.81
2022-11-19T07:14:40.093Z,100668.31
2022-11-19T07:19:42.815Z,100656.19
2022-11-19T07:24:45.484Z,100669.03
2022-11-19T07:29:48.163Z,100655.28
2022-11-19T07:34:50.869Z,100636.22
2022-11-19T07:39:53.541Z,100643.47
2022-11-19T07:44:56.389Z,100646.81
2022-11-19T07:49:59.181Z,100641.56
2022-11-19T07:55:01.977Z,100641.34
2022-11-19T08:00:07.105Z,100641.13
2022-11-19T08:05:16.122Z,100581.19
2022-11-19T08:10:19.345Z,100625.56
2022-11-19T08:15:21.984Z,100623.25
2022-11-19T08:20:24.801Z,100640.31
2022-11-19T08:25:27.701Z,100628.81
2022-11-19T08:30:31.375Z,100620.47
2022-11-19T08:35:34.133Z,100603.31
2022-11-19T08:40:37.094Z,100619.22
2022-11-19T08:45:40.236Z,100596.31
2022-11-19T08:50:42.985Z,100595.28
2022-11-19T08:55:51.318Z,100595.66
2022-11-19T09:00:55.298Z,100597.38
2022-11-19T09:06:01.374Z,100587.16
2022-11-19T09:11:15.896Z,100586.09
2022-11-19T09:16:18.861Z,100580.91
2022-11-19T09:21:21.751Z,100575.31
2022-11-19T09:26:24.468Z,100579.38
2022-11-19T09:31:27.114Z,100568.63
2022-11-19T09:36:29.794Z,100577.94
2022-11-19T09:41:44.695Z,100583.19
2022-11-19T09:46:57.033Z,100575.41
2022-11-19T09:52:06.144Z,100562.53
2022-11-19T09:57:12.486Z,100571.44
2022-11-19T10:02:20.635Z,100515.00
2022-11-19T10:07:29.258Z,100558.13
2022-11-19T10:12:43.896Z,100543.88
2022-11-19T10:17:49.558Z,100539.91
2022-11-19T10:22:57.948Z,100531.97
2022-11-19T10:28:15.320Z,100527.28
2022-11-19T10:33:41.211Z,100521.09
2022-11-19T10:38:58.040Z,100497.09
2022-11-19T10:44:40.694Z,100498.28
2022-11-19T10:49:44.090Z,100480.97
2022-11-19T10:54:46.976Z,100487.56
2022-11-19T10:59:51.149Z,100489.50
2022-11-19T11:05:17.335Z,100466.66
2022-11-19T11:10:28.987Z,100460.47
2022-11-19T11:15:32.386Z,100452.22
2022-11-19T11:20:36.698Z,100431.97
2022-11-19T11:25:41.072Z,100429.75
2022-11-19T11:31:05.086Z,100431.53
2022-11-19T11:36:09.305Z,100423.50
2022-11-19T11:42:04.063Z,100424.41
2022-11-19T11:46:56.584Z,100405.72
2022-11-19T11:52:17.630Z,100399.13
2022-11-19T11:57:22.597Z,100388.84
2022-11-19T12:02:31.371Z,100390.13
2022-11-19T12:07:55.444Z,100366.31
2022-11-19T12:12:58.098Z,100360.22
2022-11-19T12:18:10.342Z,100350.03
2022-11-19T12:23:16.056Z,100347.03
2022-11-19T12:28:37.482Z,100324.91
2022-11-19T12:33:49.269Z,100322.78
2022-11-19T12:39:26.925Z,100312.41
2022-11-19T12:44:32.550Z,100308.38
2022-11-19T12:49:40.752Z,100301.34
2022-11-19T12:54:52.164Z,100285.66
2022-11-19T13:00:12.280Z,100282.44
2022-11-19T13:05:19.996Z,100270.59
2022-11-19T13:10:28.725Z,100235.38
2022-11-19T13:15:38.690Z,100229.59
2022-11-19T13:20:54.551Z,100217.09
2022-11-19T13:26:03.879Z,100187.44
2022-11-19T13:31:13.664Z,100202.16
2022-11-19T13:36:40.778Z,100179.59
2022-11-19T13:42:07.451Z,100177.25
2022-11-19T13:47:26.199Z,100175.25
2022-11-19T13:52:40.114Z,100153.25
2022-11-19T13:57:44.555Z,100157.97
2022-11-19T14:03:05.744Z,100154.31
2022-11-19T14:08:23.333Z,100144.94
2022-11-19T14:13:50.885Z,100148.22
2022-11-19T14:19:13.675Z,100139.69
2022-11-19T14:24:44.068Z,100125.53
2022-11-19T14:29:46.602Z,100114.31
2022-11-19T14:35:01.653Z,100107.56
2022-11-19T14:40:10.445Z,100107.16
2022-11-19T14:45:13.060Z,100106.81
2022-11-19T14:50:29.285Z,100100.22
2022-11-19T14:55:34.507Z,100089.56
2022-11-19T15:00:42.214Z,100063.31
2022-11-19T15:05:46.529Z,100063.38
2022-11-19T15:11:09.860Z,100070.50
2022-11-19T15:16:27.722Z,100054.25
2022-11-19T15:21:58.067Z,100051.34
2022-11-19T15:27:18.725Z,100030.88
2022-11-19T15:32:39.717Z,100032.22
2022-11-19T15:37:52.080Z,100015.41
2022-11-19T15:43:07.260Z,100003.91
2022-11-19T15:48:45.790Z,99994.38
2022-11-19T15:54:11.445Z,99957.25
2022-11-19T15:59:15.348Z,99987.25
2022-11-19T16:04:18.122Z,99967.84
2022-11-19T16:09:23.932Z,99892.44
2022-11-19T16:14:47.900Z,99935.00
2022-11-19T16:20:06.934Z,99934.31
2022-11-19T16:25:15.327Z,99925.88
2022-11-19T16:30:24.310Z,99903.22
2022-11-19T16:35:32.049Z,99915.41
2022-11-19T16:40:55.183Z,99883.31
2022-11-19T16:45:58.313Z,99876.50
2022-11-19T16:51:35.611Z,99859.78
2022-11-19T16:56:48.121Z,99855.44
2022-11-19T17:01:59.899Z,99851.09
2022-11-19T17:07:02.933Z,99833.81
2022-11-19T17:12:22.727Z,99820.31
2022-11-19T17:17:29.229Z,99819.00
2022-11-19T17:22:34.867Z,99817.88
2022-11-19T17:27:38.649Z,99789.66
2022-11-19T17:33:02.109Z,99788.34
2022-11-19T17:38:12.255Z,99773.09
2022-11-19T17:43:35.323Z,99785.00
2022-11-19T17:48:41.485Z,99757.09
2022-11-19T17:53:44.515Z,99739.22
2022-11-19T17:58:47.820Z,99740.78
2022-11-19T18:03:50.577Z,99739.06
2022-11-19T18:08:53.388Z,99729.47
2022-11-19T18:13:58.345Z,99719.56
2022-11-19T18:19:01.128Z,99724.38
2022-11-19T18:24:04.065Z,99715.78
2022-11-19T18:29:07.046Z,99707.66
2022-11-19T18:34:15.062Z,99689.47
2022-11-19T18:39:17.878Z,99702.72
2022-11-19T18:44:35.519Z,99691.81
2022-11-19T18:49:38.836Z,99685.69
2022-11-19T18:54:41.596Z,99675.06
2022-11-19T18:59:44.562Z,99680.16
2022-11-19T19:04:51.073Z,99682.19
2022-11-19T19:09:54.011Z,99685.97
2022-11-19T19:14:57.605Z,99665.22
2022-11-19T19:20:00.252Z,99675.41
2022-11-19T19:25:05.451Z,99669.44
2022-11-19T19:30:09.974Z,99655.63
2022-11-19T19:35:12.830Z,99662.03
2022-11-19T19:40:15.704Z,99658.81
2022-11-19T19:45:18.405Z,99660.72
2022-11-19T19:50:21.062Z,99664.53
2022-11-19T19:55:23.702Z,99666.16
2022-11-19T20:00:26.428Z,99640.59
2022-11-19T20:05:29.076Z,99655.38
2022-11-19T20:10:32.745Z,99654.81
2022-11-19T20:15:35.548Z,99659.47
2022-11-19T20:20:38.289Z,99636.25
2022-11-19T20:25:40.956Z,99643.78
2022-11-19T20:30:43.662Z,99653.34
2022-11-19T20:35:52.868Z,99660.91
2022-11-19T20:40:57.934Z,99660.47
2022-11-19T20:46:07.935Z,99653.31
2022-11-19T20:51:11.135Z,99654.22
2022-11-19T20:56:14.809Z,99655.22
2022-11-19T21:01:17.499Z,99659.72
2022-11-19T21:06:20.196Z,99648.53
2022-11-19T21:11:22.895Z,99649.28
2022-11-19T21:16:26.282Z,99657.53
2022-11-19T21:21:29.056Z,99664.22
2022-11-19T21:26:31.856Z,99655.69
2022-11-19T21:31:39.366Z,99665.84
2022-11-19T21:36:43.240Z,99666.16
2022-11-19T21:41:45.949Z,99660.63
2022-11-19T21:46:48.801Z,99670.78
2022-11-19T21:51:51.535Z,99674.00
2022-11-19T21:56:54.192Z,99669.06
2022-11-19T22:01:56.808Z,99676.03
2022-11-19T22:06:59.555Z,99688.66
2022-11-19T22:12:02.244Z,99678.78
2022-11-19T22:17:05.079Z,99699.56
2022-11-19T22:22:07.810Z,99706.69
2022-11-19T22:27:10.524Z,99708.59
2022-11-19T22:32:13.438Z,99705.81
2022-11-19T22:37:16.854Z,99736.03
2022-11-19T22:42:19.576Z,99724.44
2022-11-19T22:47:22.202Z,99759.53
2022-11-19T22:52:25.106Z,99775.03
2022-11-19T22:57:28.314Z,99787.28
2022-11-19T23:02:30.943Z,99812.50
2022-11-19T23:07:33.955Z,99835.00
2022-11-19T23:12:56.993Z,99827.31
2022-11-19T23:17:59.610Z,99875.22
2022-11-19T23:23:02.319Z,99908.28
2022-11-19T23:28:05.236Z,99935.22
2022-11-19T23:33:07.888Z,99937.44
2022-11-19T23:38:10.567Z,99944.22
2022-11-19T23:43:13.281Z,99978.47
2022-11-19T23:48:17.694Z,100005.56
2022-11-19T23:53:20.348Z,100018.56
2022-11-19T23:58:23.423Z,100029.28
